CheckWX is a tool to help pilots better visualize weather data.  It is not intended as a substitute for an official pre-flight weather briefing.

17:53:32 UTC

ENLA METAR
Ula Platform Heliport
Norway
Current

34 mins ago

ENLA 241720Z AUTO 29027KT 9999NDV SCT019/// BKN091/// 06/03 Q1012 W///S5
Observed
Mar-24 @ 17:20 UTC
Wind
  • 290° at 27 KTS
Visibility
Cloud Levels
  • Scattered at 1,900' AGL
  • Broken at 9,100' AGL
Temperature
C / 43°F
Dewpoint
C / 37°F
Humidity
81%
Altimeter
29.88" Hg
Pressure
1011.92 hPa
Previous

1 hour ago

ENLA 241650Z AUTO 28027KT 9999NDV FEW055/// SCT100/// 05/03 Q1013 RERA W///S5
Observed
Mar-24 @ 16:50 UTC
Wind
  • 280° at 27 KTS
Visibility
Cloud Levels
  • Few at 5,500' AGL
  • Scattered at 10,000' AGL
Temperature
C / 41°F
Dewpoint
C / 37°F
Humidity
87%
Altimeter
29.91" Hg
Pressure
1012.92 hPa
Previous

2 hours ago

ENLA 241620Z AUTO 29030KT 3100NDV RA BKN011/// 04/02 Q1013 W///S5
Observed
Mar-24 @ 16:20 UTC
Wind
  • 290° at 30 KTS
Visibility
Conditions
Rain
Cloud Levels
  • Broken at 1,100' AGL
Temperature
C / 39°F
Dewpoint
C / 36°F
Humidity
87%
Altimeter
29.91" Hg
Pressure
1012.92 hPa